Time;durP1;ratioP1;P1;durP2;ratioP2;P2;SDS_P1;SDS_P2;PMS_P1;PMS_P2;Temp;Humidity;BMP_temperature;BMP_pressure;BME280_temperature;BME280_humidity;BME280_pressure;Samples;Min_cycle;Max_cycle;Signal;HPM_P1;HPM_P2
2022/07/19 00:01:48;;;;;;;5.03;2.57;;;23.50;34.60;;;;;;5051725;28;20170;-48
2022/07/19 00:04:14;;;;;;;4.83;2.73;;;23.40;33.90;;;;;;5051746;28;20427;-47
2022/07/19 00:06:39;;;;;;;2.60;1.60;;;23.40;34.00;;;;;;5051444;28;20173;-47
2022/07/19 00:09:05;;;;;;;3.20;1.93;;;23.40;34.00;;;;;;5051672;28;20234;-47
2022/07/19 00:11:32;;;;;;;3.93;2.23;;;23.30;34.00;;;;;;5051503;28;20404;-47
2022/07/19 00:13:58;;;;;;;8.07;1.90;;;23.30;34.20;;;;;;5055151;28;20212;-48
2022/07/19 00:16:24;;;;;;;2.90;2.00;;;23.20;34.20;;;;;;5055280;28;20425;-47
2022/07/19 00:18:49;;;;;;;2.23;1.67;;;23.20;34.20;;;;;;5055339;28;20479;-47
2022/07/19 00:21:15;;;;;;;4.10;2.33;;;23.10;34.20;;;;;;5055408;28;20879;-47
2022/07/19 00:23:41;;;;;;;2.80;2.13;;;23.10;34.50;;;;;;5055258;28;20485;-46
2022/07/19 00:26:07;;;;;;;6.40;2.50;;;23.00;34.40;;;;;;5055027;28;20169;-46
2022/07/19 00:28:33;;;;;;;3.10;1.80;;;23.00;34.60;;;;;;5055281;28;20395;-46
2022/07/19 00:30:59;;;;;;;3.77;2.13;;;22.90;34.70;;;;;;5055243;28;20473;-47
2022/07/19 00:33:25;;;;;;;3.90;1.90;;;22.90;34.70;;;;;;5055171;28;20196;-47
2022/07/19 00:35:50;;;;;;;6.27;2.70;;;22.90;34.70;;;;;;5037074;28;20177;-47
2022/07/19 00:38:16;;;;;;;3.10;1.80;;;22.80;34.90;;;;;;5037215;28;20411;-47
2022/07/19 00:40:43;;;;;;;4.30;2.17;;;22.80;35.10;;;;;;5054861;28;20283;-48
2022/07/19 00:43:10;;;;;;;3.70;2.30;;;22.70;35.10;;;;;;5054946;28;20657;-47
2022/07/19 00:45:37;;;;;;;4.37;2.60;;;22.70;35.20;;;;;;5054645;28;20435;-47
2022/07/19 00:48:03;;;;;;;3.20;2.00;;;22.70;35.10;;;;;;5054972;28;20545;-47
2022/07/19 00:50:30;;;;;;;4.40;2.40;;;22.70;35.40;;;;;;5054801;28;20426;-47
2022/07/19 00:53:02;;;;;;;3.33;2.20;;;22.60;35.50;;;;;;5054748;28;20423;-48
2022/07/19 00:55:33;;;;;;;3.67;2.27;;;22.50;35.60;;;;;;5054599;28;20410;-47
2022/07/19 00:58:00;;;;;;;3.60;1.67;;;22.50;35.80;;;;;;5054981;28;20408;-47
2022/07/19 01:00:28;;;;;;;2.93;1.93;;;22.50;35.90;;;;;;5054586;28;20455;-47
2022/07/19 01:02:54;;;;;;;8.37;2.87;;;22.40;36.10;;;;;;5054535;28;20423;-46
2022/07/19 01:05:20;;;;;;;3.70;2.83;;;22.30;36.00;;;;;;5054547;28;20843;-46
2022/07/19 01:07:46;;;;;;;2.77;2.23;;;22.30;35.90;;;;;;5054307;28;20439;-48
2022/07/19 01:10:13;;;;;;;8.17;2.27;;;22.30;36.10;;;;;;5054353;28;20981;-46
2022/07/19 01:12:41;;;;;;;4.23;2.53;;;22.30;36.10;;;;;;5054302;28;20907;-47
2022/07/19 01:15:14;;;;;;;3.63;2.30;;;22.20;36.10;;;;;;5054540;28;20494;-46
2022/07/19 01:17:39;;;;;;;3.10;2.03;;;22.20;36.10;;;;;;5054232;28;20411;-47
2022/07/19 01:20:07;;;;;;;3.10;2.00;;;22.20;36.10;;;;;;5036274;28;20500;-47
2022/07/19 01:22:33;;;;;;;4.90;2.13;;;22.10;36.10;;;;;;5054488;28;20227;-47
2022/07/19 01:24:59;;;;;;;9.70;2.37;;;22.10;36.10;;;;;;5053438;28;20412;-46
2022/07/19 01:27:24;;;;;;;4.27;2.57;;;22.10;36.40;;;;;;5054014;28;20406;-47
2022/07/19 01:29:50;;;;;;;3.60;2.33;;;22.00;36.40;;;;;;5054104;28;20203;-48
2022/07/19 01:32:16;;;;;;;5.27;2.50;;;22.00;36.60;;;;;;5054127;28;20174;-47
2022/07/19 01:34:41;;;;;;;3.03;2.00;;;21.90;36.60;;;;;;5054036;28;20197;-47
2022/07/19 01:37:07;;;;;;;3.90;2.33;;;22.00;36.50;;;;;;5053715;28;20188;-47
2022/07/19 01:39:33;;;;;;;5.10;2.20;;;21.90;36.40;;;;;;5053857;28;20197;-46
2022/07/19 01:41:59;;;;;;;4.00;2.20;;;21.90;36.60;;;;;;5053920;28;20174;-46
2022/07/19 01:44:24;;;;;;;5.20;2.53;;;21.90;36.70;;;;;;5053801;28;20193;-47
2022/07/19 01:46:50;;;;;;;5.20;2.07;;;21.80;36.70;;;;;;5053631;28;20178;-47
2022/07/19 01:49:16;;;;;;;3.20;2.07;;;21.80;36.70;;;;;;5035824;28;20177;-47
2022/07/19 01:51:42;;;;;;;15.90;2.47;;;21.70;36.80;;;;;;5053654;28;20541;-48
2022/07/19 01:54:07;;;;;;;4.20;2.40;;;21.70;36.80;;;;;;5053616;28;20220;-48
2022/07/19 01:56:33;;;;;;;3.87;2.77;;;21.70;36.80;;;;;;5053433;28;20251;-46
2022/07/19 01:58:59;;;;;;;3.00;2.33;;;21.70;36.90;;;;;;5053528;28;20180;-48
2022/07/19 02:01:25;;;;;;;4.83;2.77;;;21.60;36.70;;;;;;5053549;28;20275;-48
2022/07/19 02:03:50;;;;;;;3.63;2.30;;;21.60;36.70;;;;;;5053400;28;20219;-47
2022/07/19 02:06:16;;;;;;;4.10;2.37;;;21.60;36.70;;;;;;5053264;28;20256;-48
2022/07/19 02:08:42;;;;;;;4.43;2.20;;;21.50;37.00;;;;;;5053352;28;20173;-47
2022/07/19 02:13:52;;;;;;;3.70;2.97;;;21.40;37.00;;;;;;5053165;28;20215;-47
2022/07/19 02:16:18;;;;;;;5.50;2.60;;;21.40;37.10;;;;;;5052943;28;20177;-47
2022/07/19 02:18:44;;;;;;;3.60;2.60;;;21.40;37.20;;;;;;5053047;28;20173;-48
2022/07/19 02:21:09;;;;;;;5.23;2.53;;;21.30;37.20;;;;;;5053331;28;20407;-48
2022/07/19 02:23:35;;;;;;;4.93;3.10;;;21.30;37.10;;;;;;5052992;28;20652;-48
2022/07/19 02:26:01;;;;;;;3.10;2.00;;;21.30;37.20;;;;;;5052838;28;20180;-47
2022/07/19 02:28:27;;;;;;;3.17;2.30;;;21.30;37.30;;;;;;5053010;28;20404;-48
2022/07/19 02:30:53;;;;;;;4.00;2.70;;;21.20;37.20;;;;;;5052967;28;20177;-47
2022/07/19 02:33:19;;;;;;;3.80;2.53;;;21.20;37.20;;;;;;5052790;28;20592;-47
2022/07/19 02:35:45;;;;;;;6.07;2.80;;;21.10;37.50;;;;;;5051727;28;20541;-48
2022/07/19 02:38:10;;;;;;;4.33;2.60;;;21.10;37.50;;;;;;5052792;28;20242;-47
2022/07/19 02:40:36;;;;;;;3.07;2.33;;;21.10;37.30;;;;;;5052743;28;20272;-48
2022/07/19 02:43:02;;;;;;;4.93;2.40;;;21.10;37.40;;;;;;5052725;28;20239;-48
2022/07/19 02:45:27;;;;;;;3.13;2.10;;;21.10;37.50;;;;;;5052675;28;20537;-47
2022/07/19 02:47:53;;;;;;;4.07;2.00;;;21.00;37.40;;;;;;5052465;28;20173;-48
2022/07/19 02:50:19;;;;;;;3.70;2.73;;;21.00;37.50;;;;;;5052640;28;20663;-47
2022/07/19 02:52:45;;;;;;;3.87;2.50;;;21.00;37.50;;;;;;5052438;28;20173;-46
2022/07/19 02:55:10;;;;;;;4.30;2.40;;;20.90;37.70;;;;;;5052501;28;20169;-46
2022/07/19 02:57:36;;;;;;;5.63;2.70;;;20.90;38.00;;;;;;5052357;28;20172;-47
2022/07/19 03:00:10;;;;;;;4.10;2.27;;;20.90;37.90;;;;;;5052363;28;20199;-47
2022/07/19 03:02:36;;;;;;;4.90;1.95;;;20.90;37.80;;;;;;5052332;28;20560;-46
2022/07/19 03:05:02;;;;;;;4.20;2.50;;;20.80;37.90;;;;;;5052399;28;20169;-46
2022/07/19 03:07:28;;;;;;;3.97;2.67;;;20.80;37.90;;;;;;5051988;28;20257;-47
2022/07/19 03:09:53;;;;;;;4.73;2.40;;;20.80;37.80;;;;;;5052283;28;20581;-47
2022/07/19 03:12:19;;;;;;;3.13;2.30;;;20.80;37.90;;;;;;5052246;28;20174;-46
2022/07/19 03:14:45;;;;;;;3.00;2.03;;;20.70;37.90;;;;;;5051976;28;20287;-47
2022/07/19 03:17:10;;;;;;;3.87;1.93;;;20.70;37.90;;;;;;5051951;28;20169;-47
2022/07/19 03:19:36;;;;;;;3.77;2.03;;;20.70;38.00;;;;;;5052040;28;20193;-48
2022/07/19 03:22:02;;;;;;;3.50;2.40;;;20.80;38.10;;;;;;5052148;28;20696;-47
2022/07/19 03:24:28;;;;;;;5.20;2.30;;;20.70;38.20;;;;;;5052034;28;20189;-47
2022/07/19 03:26:54;;;;;;;4.53;2.20;;;20.70;38.30;;;;;;5051787;28;20173;-47
2022/07/19 03:29:19;;;;;;;5.60;2.37;;;20.70;38.20;;;;;;5052028;28;20187;-46
2022/07/19 03:31:45;;;;;;;2.83;2.20;;;20.70;38.20;;;;;;5052219;28;20169;-47
2022/07/19 03:34:11;;;;;;;3.87;2.67;;;20.60;38.90;;;;;;5051956;28;21054;-47
2022/07/19 03:36:37;;;;;;;3.60;2.80;;;20.60;38.20;;;;;;5051718;28;20487;-48
2022/07/19 03:39:03;;;;;;;2.70;2.00;;;20.60;38.30;;;;;;5052135;28;20177;-47
2022/07/19 03:41:29;;;;;;;4.77;2.63;;;20.60;38.20;;;;;;5051838;28;20756;-47
2022/07/19 03:43:55;;;;;;;3.30;3.00;;;20.60;38.30;;;;;;5051660;28;20427;-47
2022/07/19 03:46:21;;;;;;;2.57;2.20;;;20.60;38.40;;;;;;5051649;28;20410;-47
2022/07/19 03:48:47;;;;;;;5.00;2.53;;;20.60;38.40;;;;;;5055655;28;20247;-46
2022/07/19 03:51:13;;;;;;;3.75;2.80;;;20.60;38.60;;;;;;5038014;28;20165;-47
2022/07/19 03:53:39;;;;;;;7.50;3.40;;;20.60;38.50;;;;;;5055780;28;20195;-47
2022/07/19 03:56:05;;;;;;;11.00;3.67;;;20.60;38.60;;;;;;5055702;28;20396;-47
2022/07/19 03:58:31;;;;;;;25.57;4.27;;;20.60;38.60;;;;;;5055820;28;20802;-47
2022/07/19 04:00:57;;;;;;;9.52;3.33;;;20.70;38.50;;;;;;5037797;28;20815;-47
2022/07/19 04:03:23;;;;;;;3.37;2.10;;;20.70;38.70;;;;;;5055705;28;20191;-47
2022/07/19 04:05:49;;;;;;;7.73;2.33;;;20.70;38.70;;;;;;5055395;28;20400;-47
2022/07/19 04:08:15;;;;;;;2.90;1.92;;;20.70;38.70;;;;;;5055563;28;20528;-47
2022/07/19 04:10:41;;;;;;;3.80;2.43;;;20.80;38.50;;;;;;5055644;28;20173;-47
2022/07/19 04:13:07;;;;;;;2.75;2.15;;;20.80;38.40;;;;;;5055328;28;20258;-44
2022/07/19 04:15:33;;;;;;;5.40;2.33;;;20.90;38.40;;;;;;5055355;28;20215;-45
2022/07/19 04:17:59;;;;;;;3.70;2.60;;;20.90;38.40;;;;;;5055386;28;20510;-45
2022/07/19 04:20:25;;;;;;;5.70;3.30;;;21.00;38.40;;;;;;5055238;28;20212;-46
2022/07/19 04:22:51;;;;;;;4.30;2.40;;;21.00;38.60;;;;;;5055300;28;20412;-45
2022/07/19 04:25:17;;;;;;;4.20;2.57;;;21.10;38.60;;;;;;5055279;28;20197;-45
2022/07/19 04:27:43;;;;;;;3.27;2.07;;;21.10;38.70;;;;;;5055005;28;20165;-46
2022/07/19 04:30:09;;;;;;;5.33;2.60;;;21.20;38.80;;;;;;5055311;28;20414;-44
2022/07/19 04:32:35;;;;;;;4.40;2.57;;;21.20;38.50;;;;;;5055359;28;20472;-47
2022/07/19 04:35:02;;;;;;;5.30;2.57;;;21.30;38.30;;;;;;5044893;22;20495;-47
2022/07/19 04:37:28;;;;;;;6.18;2.20;;;21.40;38.30;;;;;;5034554;28;20174;-47
2022/07/19 04:39:53;;;;;;;6.37;3.40;;;21.50;38.30;;;;;;5035142;28;20204;-48
2022/07/19 04:42:19;;;;;;;4.10;2.53;;;21.50;38.40;;;;;;5035145;28;20428;-46
2022/07/19 04:44:45;;;;;;;3.07;2.00;;;21.60;38.20;;;;;;5035008;28;20182;-47
2022/07/19 04:47:11;;;;;;;4.70;2.00;;;21.60;38.00;;;;;;5034797;28;20163;-46
2022/07/19 04:49:37;;;;;;;5.47;2.37;;;21.70;38.00;;;;;;5034873;28;20462;-45
2022/07/19 04:52:03;;;;;;;4.23;2.63;;;21.80;37.90;;;;;;5034868;28;20420;-48
2022/07/19 04:54:29;;;;;;;4.13;2.67;;;21.80;37.70;;;;;;5034906;28;20231;-47
2022/07/19 04:56:55;;;;;;;5.57;3.00;;;21.90;37.60;;;;;;5034640;28;21133;-48
2022/07/19 04:59:20;;;;;;;3.77;2.10;;;22.10;37.60;;;;;;5033545;28;20538;-48
2022/07/19 05:01:46;;;;;;;3.40;2.10;;;22.20;37.50;;;;;;5034772;28;20173;-45
2022/07/19 05:04:12;;;;;;;3.50;2.37;;;22.20;37.30;;;;;;5034869;28;20178;-45
2022/07/19 05:06:37;;;;;;;4.10;2.60;;;22.40;37.20;;;;;;5034341;28;20170;-45
2022/07/19 05:09:03;;;;;;;3.37;2.27;;;22.50;37.20;;;;;;5034580;28;20170;-46
2022/07/19 05:11:29;;;;;;;3.43;2.10;;;22.60;37.00;;;;;;5034550;28;20200;-44
2022/07/19 05:13:55;;;;;;;3.87;2.57;;;22.60;36.80;;;;;;5034416;28;20508;-45
2022/07/19 05:16:21;;;;;;;3.30;2.17;;;22.70;36.70;;;;;;5034441;28;20253;-45
2022/07/19 05:18:47;;;;;;;4.83;2.70;;;22.80;36.60;;;;;;5034376;28;20248;-46
2022/07/19 05:21:12;;;;;;;4.10;2.43;;;23.00;36.60;;;;;;5034424;28;20206;-45
2022/07/19 05:23:41;;;;;;;3.27;2.30;;;23.00;36.30;;;;;;5034127;28;20494;-46
2022/07/19 05:26:07;;;;;;;2.53;1.87;;;23.10;36.30;;;;;;5034367;28;20174;-46
2022/07/19 05:28:33;;;;;;;3.40;2.30;;;23.20;36.20;;;;;;5034220;28;20884;-45
2022/07/19 05:30:59;;;;;;;6.27;2.80;;;23.30;36.10;;;;;;5034432;28;20445;-45
2022/07/19 05:33:27;;;;;;;8.53;2.73;;;23.40;36.00;;;;;;5033767;28;20468;-45
2022/07/19 05:35:54;;;;;;;3.73;1.90;;;23.50;36.00;;;;;;5033862;28;20220;-45
2022/07/19 05:38:20;;;;;;;3.50;2.17;;;23.60;35.60;;;;;;5034180;28;20458;-45
2022/07/19 05:40:46;;;;;;;3.87;2.20;;;23.70;35.80;;;;;;5033950;28;20853;-48
2022/07/19 05:43:11;;;;;;;4.47;3.00;;;23.80;35.80;;;;;;5034146;28;20247;-47
2022/07/19 05:45:37;;;;;;;4.10;2.13;;;23.90;35.70;;;;;;5033691;28;20175;-47
2022/07/19 05:48:03;;;;;;;3.10;2.63;;;24.00;35.50;;;;;;5033811;28;20240;-47
2022/07/19 05:50:29;;;;;;;5.13;3.10;;;24.20;35.70;;;;;;5033849;28;20679;-48
2022/07/19 05:52:55;;;;;;;4.20;2.60;;;24.30;35.50;;;;;;5033674;28;20413;-48
2022/07/19 05:55:21;;;;;;;3.40;2.43;;;24.40;35.50;;;;;;5033893;28;20200;-46
2022/07/19 05:57:46;;;;;;;4.90;2.37;;;24.50;35.00;;;;;;5033491;28;20176;-46
2022/07/19 06:00:14;;;;;;;3.10;2.00;;;24.50;34.40;;;;;;5033766;28;20202;-47
2022/07/19 06:02:40;;;;;;;5.17;2.23;;;24.60;34.70;;;;;;5033462;28;20419;-47
2022/07/19 06:05:07;;;;;;;4.57;2.80;;;24.70;35.00;;;;;;5033462;28;20798;-47
2022/07/19 06:07:33;;;;;;;3.10;2.00;;;24.80;35.20;;;;;;5033451;28;20408;-47
2022/07/19 06:10:01;;;;;;;2.73;1.80;;;24.90;34.60;;;;;;5033156;28;20454;-47
2022/07/19 06:12:27;;;;;;;4.33;2.10;;;25.00;34.80;;;;;;5033330;28;20404;-47
2022/07/19 06:14:53;;;;;;;2.97;2.03;;;25.10;34.30;;;;;;5033249;28;20444;-47
2022/07/19 06:17:19;;;;;;;4.03;1.70;;;25.20;33.80;;;;;;5033018;28;20769;-46
2022/07/19 06:19:44;;;;;;;6.10;2.57;;;25.20;33.10;;;;;;5033109;28;20210;-48
2022/07/19 06:22:10;;;;;;;3.93;1.90;;;25.30;33.20;;;;;;5033199;28;20162;-47
2022/07/19 06:24:36;;;;;;;2.83;1.80;;;25.40;32.50;;;;;;5033119;28;20553;-48
2022/07/19 06:27:02;;;;;;;2.90;2.00;;;25.40;32.40;;;;;;5032986;28;20633;-47
2022/07/19 06:29:27;;;;;;;2.80;1.80;;;25.50;32.70;;;;;;5033075;28;20637;-47
2022/07/19 06:31:53;;;;;;;3.83;2.07;;;25.60;32.90;;;;;;5033182;28;20212;-47
2022/07/19 06:34:19;;;;;;;5.20;1.93;;;25.80;33.30;;;;;;5032772;28;20205;-46
2022/07/19 06:36:44;;;;;;;4.20;2.10;;;26.00;33.50;;;;;;5032720;28;20182;-47
2022/07/19 06:39:10;;;;;;;3.43;1.87;;;26.20;33.70;;;;;;5032859;28;20258;-48
2022/07/19 06:41:36;;;;;;;3.07;2.20;;;26.30;32.20;;;;;;5032826;28;20224;-47
2022/07/19 06:44:02;;;;;;;2.60;1.80;;;26.40;32.10;;;;;;5032738;28;20189;-47
2022/07/19 06:46:28;;;;;;;3.50;2.10;;;26.50;32.20;;;;;;5032492;28;20170;-47
2022/07/19 06:48:54;;;;;;;3.83;2.00;;;26.60;32.50;;;;;;5032670;28;20542;-47
2022/07/19 06:51:19;;;;;;;3.10;1.97;;;26.70;30.60;;;;;;5032666;28;20419;-46
2022/07/19 06:53:45;;;;;;;2.77;1.63;;;26.80;31.40;;;;;;5032570;28;20222;-47
2022/07/19 06:56:11;;;;;;;3.43;2.37;;;27.00;32.30;;;;;;5032295;28;20220;-47
2022/07/19 06:58:37;;;;;;;3.37;2.00;;;27.10;30.80;;;;;;5032592;28;20166;-47
2022/07/19 07:01:03;;;;;;;3.93;1.70;;;27.20;31.30;;;;;;5032323;28;20242;-44
2022/07/19 07:03:29;;;;;;;4.50;2.10;;;27.30;31.50;;;;;;5032396;28;20555;-44
2022/07/19 07:05:54;;;;;;;5.73;1.90;;;27.50;31.80;;;;;;5032258;28;20416;-44
2022/07/19 07:08:20;;;;;;;4.30;1.77;;;27.60;30.90;;;;;;5032517;28;20404;-44
2022/07/19 07:10:46;;;;;;;3.97;1.67;;;27.70;29.20;;;;;;5032298;28;20677;-45
2022/07/19 07:13:12;;;;;;;2.27;1.60;;;27.80;29.80;;;;;;5032239;28;20166;-46
2022/07/19 07:15:38;;;;;;;4.37;1.67;;;27.90;29.50;;;;;;5031961;28;20653;-47
2022/07/19 07:18:04;;;;;;;3.93;2.27;;;28.10;30.10;;;;;;5032419;28;20413;-44
2022/07/19 07:20:30;;;;;;;2.97;2.03;;;28.20;29.80;;;;;;5032133;28;20448;-47
2022/07/19 07:22:56;;;;;;;2.53;1.47;;;28.30;30.00;;;;;;5031815;28;20761;-44
2022/07/19 07:25:21;;;;;;;3.57;1.80;;;28.40;30.50;;;;;;5031975;28;20194;-47
2022/07/19 07:27:47;;;;;;;4.97;1.87;;;28.60;28.50;;;;;;5031947;28;20166;-48
2022/07/19 07:30:13;;;;;;;2.87;2.17;;;28.70;28.40;;;;;;5032315;28;20174;-47
2022/07/19 07:32:39;;;;;;;3.90;2.07;;;28.80;27.70;;;;;;5032192;28;20509;-48
2022/07/19 07:35:05;;;;;;;3.17;2.10;;;28.90;26.90;;;;;;5031855;28;20476;-47
2022/07/19 07:37:31;;;;;;;3.87;1.60;;;29.00;28.60;;;;;;5031735;28;20185;-48
2022/07/19 07:39:57;;;;;;;2.97;2.20;;;29.10;28.50;;;;;;5031825;28;20448;-47
2022/07/19 07:42:24;;;;;;;3.77;2.23;;;29.20;27.90;;;;;;5031957;28;20172;-47
2022/07/19 07:44:51;;;;;;;2.77;1.80;;;29.40;28.90;;;;;;5031787;28;20691;-47
2022/07/19 07:47:16;;;;;;;2.43;1.27;;;29.50;28.80;;;;;;5031606;28;20730;-47
2022/07/19 07:49:42;;;;;;;4.00;1.60;;;29.70;28.80;;;;;;5031843;28;20409;-46
2022/07/19 07:52:08;;;;;;;3.30;2.00;;;29.90;28.20;;;;;;5031846;28;20289;-48
2022/07/19 07:54:35;;;;;;;2.70;1.60;;;30.10;29.00;;;;;;5031795;28;20247;-48
2022/07/19 07:57:01;;;;;;;2.80;1.90;;;30.20;28.50;;;;;;5031559;28;20472;-47
2022/07/19 07:59:26;;;;;;;5.90;1.83;;;30.40;28.70;;;;;;5031683;28;20971;-48
2022/07/19 08:01:52;;;;;;;3.70;1.80;;;30.60;28.40;;;;;;5031710;28;20777;-44
2022/07/19 08:04:18;;;;;;;2.37;1.67;;;30.80;28.60;;;;;;5031723;28;20189;-44
2022/07/19 08:06:43;;;;;;;3.50;1.40;;;30.90;28.00;;;;;;5031581;28;20201;-45
2022/07/19 08:09:09;;;;;;;3.60;2.23;;;31.10;27.80;;;;;;5031693;28;20173;-45
2022/07/19 08:11:35;;;;;;;4.27;2.03;;;31.20;28.10;;;;;;5031656;28;20175;-46
2022/07/19 08:14:01;;;;;;;4.60;1.57;;;31.30;28.30;;;;;;5031412;28;20319;-47
2022/07/19 08:16:27;;;;;;;3.30;1.57;;;31.50;28.30;;;;;;5031344;28;20170;-46
2022/07/19 08:18:53;;;;;;;4.37;2.20;;;31.60;26.20;;;;;;5031571;28;20415;-47
2022/07/19 08:21:18;;;;;;;3.37;1.90;;;31.60;26.60;;;;;;5031631;28;20455;-48
2022/07/19 08:23:44;;;;;;;3.70;2.17;;;31.70;25.70;;;;;;5031486;28;20215;-48
2022/07/19 08:26:10;;;;;;;3.23;1.70;;;31.80;25.00;;;;;;5031342;28;20230;-47
2022/07/19 08:28:36;;;;;;;2.70;1.73;;;31.80;25.30;;;;;;5031374;28;20173;-48
2022/07/19 08:31:01;;;;;;;2.83;1.50;;;32.00;27.10;;;;;;5031446;28;20679;-47
2022/07/19 08:33:27;;;;;;;2.53;1.73;;;32.10;26.80;;;;;;5032511;28;20698;-46
2022/07/19 08:35:53;;;;;;;3.03;1.83;;;32.20;25.60;;;;;;5035004;28;20184;-48
2022/07/19 08:38:19;;;;;;;4.27;1.73;;;32.30;25.00;;;;;;5035108;28;20415;-48
2022/07/19 08:40:48;;;;;;;3.57;1.67;;;32.50;25.40;;;;;;5034974;28;20205;-48
2022/07/19 08:43:14;;;;;;;6.53;1.83;;;32.60;24.60;;;;;;5034852;28;20165;-46
2022/07/19 08:45:41;;;;;;;2.97;2.20;;;32.70;24.30;;;;;;5034664;28;20486;-48
2022/07/19 08:48:07;;;;;;;3.70;2.20;;;32.70;24.60;;;;;;5034993;28;20409;-48
2022/07/19 08:50:34;;;;;;;2.10;1.60;;;32.90;24.90;;;;;;5034961;28;20409;-48
2022/07/19 08:53:01;;;;;;;3.47;2.00;;;33.10;25.70;;;;;;5034808;28;20469;-47
2022/07/19 08:55:28;;;;;;;2.50;1.53;;;33.20;25.00;;;;;;5034885;28;20404;-47
2022/07/19 08:58:02;;;;;;;2.60;1.63;;;33.30;24.70;;;;;;5034637;28;20408;-49
2022/07/19 09:00:33;;;;;;;3.53;1.83;;;33.40;24.30;;;;;;5034549;28;20501;-48
2022/07/19 09:03:05;;;;;;;3.03;1.77;;;33.50;23.60;;;;;;5034639;28;20416;-48
2022/07/19 09:05:33;;;;;;;4.43;1.67;;;33.50;23.40;;;;;;5034624;28;20436;-47
2022/07/19 09:08:11;;;;;;;2.87;1.70;;;33.60;24.30;;;;;;5034626;28;20439;-48
2022/07/19 09:10:44;;;;;;;3.50;1.90;;;33.80;25.10;;;;;;5034540;28;20868;-47
2022/07/19 09:13:15;;;;;;;4.57;1.37;;;33.80;24.20;;;;;;5034473;28;20458;-48
2022/07/19 09:15:53;;;;;;;5.60;1.60;;;33.90;24.00;;;;;;5034180;28;20417;-47
2022/07/19 09:18:23;;;;;;;2.20;1.07;;;34.00;23.70;;;;;;5034467;28;20449;-48
2022/07/19 09:20:58;;;;;;;3.47;1.50;;;34.10;23.80;;;;;;5034254;28;20795;-48
2022/07/19 09:23:24;;;;;;;2.93;2.00;;;34.20;22.60;;;;;;5034452;28;20432;-48
2022/07/19 09:25:55;;;;;;;2.87;1.77;;;34.30;21.60;;;;;;5034259;28;20413;-47
2022/07/19 09:28:23;;;;;;;3.47;1.60;;;34.40;21.90;;;;;;5034192;28;20394;-45
2022/07/19 09:30:51;;;;;;;3.87;1.60;;;34.50;20.60;;;;;;5034302;28;20812;-45
2022/07/19 09:33:27;;;;;;;6.77;1.80;;;34.60;19.80;;;;;;5033809;28;20417;-45
2022/07/19 09:36:10;;;;;;;2.50;1.67;;;34.60;20.10;;;;;;5034025;28;20780;-45
2022/07/19 09:38:37;;;;;;;4.87;1.93;;;34.70;20.00;;;;;;5034112;28;20443;-46
2022/07/19 09:41:17;;;;;;;2.87;2.23;;;34.80;19.80;;;;;;5033935;28;20513;-47
2022/07/19 09:43:55;;;;;;;2.40;1.73;;;34.90;19.50;;;;;;5033759;28;20928;-46
2022/07/19 09:46:29;;;;;;;4.13;1.50;;;35.00;19.50;;;;;;5033293;28;20456;-45
2022/07/19 09:49:14;;;;;;;3.27;1.97;;;35.20;20.20;;;;;;5016483;28;20398;-46
2022/07/19 09:51:42;;;;;;;3.97;1.83;;;35.30;20.50;;;;;;5033862;28;20430;-45
2022/07/19 09:54:10;;;;;;;2.37;1.47;;;35.40;20.00;;;;;;5033583;28;20440;-45
2022/07/19 09:56:37;;;;;;;2.97;1.83;;;35.50;19.60;;;;;;5033331;28;20464;-46
2022/07/19 09:59:04;;;;;;;2.77;1.70;;;35.60;20.00;;;;;;5033785;28;20418;-46
2022/07/19 10:01:30;;;;;;;4.27;1.80;;;35.60;18.60;;;;;;5033557;28;20474;-45
2022/07/19 10:04:01;;;;;;;3.00;1.70;;;35.60;18.10;;;;;;5033365;28;20439;-45
2022/07/19 10:06:27;;;;;;;2.63;1.30;;;35.80;18.90;;;;;;5033329;28;20438;-45
2022/07/19 10:08:55;;;;;;;3.43;1.87;;;35.80;18.00;;;;;;5033749;28;20417;-45
2022/07/19 10:11:21;;;;;;;4.43;1.90;;;35.90;18.50;;;;;;5033364;28;20431;-45
2022/07/19 10:13:50;;;;;;;3.03;1.60;;;35.90;18.00;;;;;;5033247;28;20436;-47
2022/07/19 10:16:23;;;;;;;2.47;1.27;;;36.00;18.90;;;;;;5033372;28;20502;-46
2022/07/19 10:19:27;;;;;;;2.43;1.47;;;36.10;19.10;;;;;;5033346;28;20824;-46
2022/07/19 10:21:54;;;;;;;3.00;1.70;;;36.10;19.10;;;;;;5030175;28;20539;-45
2022/07/19 10:24:41;;;;;;;7.33;2.03;;;36.10;19.10;;;;;;5034072;28;20419;-44
2022/07/19 10:27:08;;;;;;;7.40;2.00;;;36.30;18.90;;;;;;5033845;28;20407;-45
2022/07/19 10:29:34;;;;;;;3.97;2.40;;;36.30;19.30;;;;;;5034021;28;20489;-47
2022/07/19 10:32:05;;;;;;;4.10;1.90;;;36.30;18.80;;;;;;5034078;28;20496;-45
2022/07/19 10:34:31;;;;;;;3.37;1.50;;;36.40;17.60;;;;;;5034232;28;20639;-45
2022/07/19 10:36:57;;;;;;;2.90;2.00;;;36.40;18.00;;;;;;5034079;28;20447;-45
2022/07/19 10:39:30;;;;;;;5.43;1.83;;;36.50;17.40;;;;;;5033650;28;20448;-45
2022/07/19 10:42:20;;;;;;;12.07;3.57;;;36.60;17.60;;;;;;5033545;28;20185;-46
2022/07/19 10:44:59;;;;;;;5.00;2.20;;;36.80;17.00;;;;;;5034255;28;20417;-45
2022/07/19 10:47:40;;;;;;;2.83;1.90;;;36.90;17.80;;;;;;5033558;28;20455;-44
2022/07/19 10:50:06;;;;;;;6.53;2.07;;;37.00;17.00;;;;;;5032798;28;20400;-45
2022/07/19 10:52:41;;;;;;;2.03;1.40;;;37.00;17.20;;;;;;5032622;28;20463;-46
2022/07/19 10:55:27;;;;;;;3.50;1.90;;;37.20;17.30;;;;;;5032822;28;20523;-46
2022/07/19 10:57:59;;;;;;;2.50;1.80;;;37.30;17.70;;;;;;5031448;28;20407;-46
2022/07/19 11:00:29;;;;;;;3.57;1.40;;;37.50;17.10;;;;;;5032412;28;20452;-47
2022/07/19 11:03:20;;;;;;;3.33;2.13;;;37.50;16.90;;;;;;5032697;28;20408;-46
2022/07/19 11:06:07;;;;;;;2.67;1.53;;;37.70;17.10;;;;;;5032137;28;20734;-46
2022/07/19 11:08:37;;;;;;;2.63;2.00;;;37.70;16.90;;;;;;5032597;28;20756;-46
2022/07/19 11:11:13;;;;;;;6.17;2.60;;;37.70;17.10;;;;;;5032351;28;20463;-45
2022/07/19 11:13:42;;;;;;;2.80;2.00;;;37.70;17.30;;;;;;5032513;28;20761;-45
2022/07/19 11:16:08;;;;;;;4.37;1.60;;;37.70;17.60;;;;;;5031950;28;20746;-45
2022/07/19 11:18:34;;;;;;;3.63;1.60;;;37.70;17.40;;;;;;5032233;28;20412;-45
2022/07/19 11:21:02;;;;;;;2.30;1.70;;;37.80;17.20;;;;;;5032153;28;20708;-45
2022/07/19 11:23:30;;;;;;;2.97;2.30;;;37.80;16.60;;;;;;5031946;28;20491;-45
2022/07/19 11:26:20;;;;;;;2.80;2.07;;;37.90;15.70;;;;;;5032114;28;20410;-46
2022/07/19 11:28:47;;;;;;;2.97;1.53;;;37.90;15.80;;;;;;5046534;23;20428;-48
2022/07/19 11:31:23;;;;;;;4.70;2.03;;;38.00;17.00;;;;;;5051752;28;20542;-48
2022/07/19 11:33:58;;;;;;;3.00;1.80;;;38.20;16.30;;;;;;5052019;28;20732;-48
2022/07/19 11:36:26;;;;;;;3.07;1.70;;;38.20;16.70;;;;;;5051790;28;20419;-48
2022/07/19 11:38:58;;;;;;;4.60;1.70;;;38.30;16.70;;;;;;5052007;28;20423;-47
2022/07/19 11:41:32;;;;;;;5.30;1.90;;;38.40;16.60;;;;;;5051780;28;20937;-50
2022/07/19 11:44:04;;;;;;;3.67;2.00;;;38.40;16.60;;;;;;5051796;28;20403;-49
2022/07/19 11:46:37;;;;;;;2.80;1.83;;;38.60;16.10;;;;;;5051714;28;20953;-48
2022/07/19 11:49:06;;;;;;;2.63;1.70;;;38.70;16.40;;;;;;5034642;28;20427;-49
2022/07/19 11:51:32;;;;;;;2.67;1.57;;;38.80;15.90;;;;;;5051809;28;20396;-47
2022/07/19 11:54:00;;;;;;;2.90;2.10;;;38.80;15.70;;;;;;5051771;28;20757;-49
2022/07/19 11:56:30;;;;;;;4.07;1.77;;;38.80;15.90;;;;;;5051589;28;20396;-48
2022/07/19 11:58:58;;;;;;;3.50;2.27;;;38.70;16.20;;;;;;5051803;28;20450;-49
2022/07/19 12:01:28;;;;;;;3.70;1.90;;;38.80;15.50;;;;;;5051847;28;20530;-48
2022/07/19 12:03:56;;;;;;;6.73;2.30;;;38.80;14.80;;;;;;5051663;28;20404;-49
2022/07/19 12:06:40;;;;;;;2.90;1.73;;;38.90;14.70;;;;;;5051483;28;20404;-48
2022/07/19 12:09:26;;;;;;;3.03;1.93;;;39.00;15.50;;;;;;5054055;28;20419;-49
2022/07/19 12:11:54;;;;;;;3.20;1.93;;;39.00;15.10;;;;;;5055619;28;20763;-48
2022/07/19 12:14:24;;;;;;;3.60;2.07;;;39.30;15.90;;;;;;5055536;28;20422;-50
2022/07/19 12:17:12;;;;;;;4.07;2.83;;;39.40;15.80;;;;;;5055580;28;20407;-49
2022/07/19 12:19:39;;;;;;;3.07;2.57;;;39.60;15.50;;;;;;5055326;28;20450;-50
2022/07/19 12:22:05;;;;;;;3.13;2.20;;;39.70;15.30;;;;;;5055458;28;20404;-49
2022/07/19 12:24:42;;;;;;;4.23;3.33;;;39.80;15.00;;;;;;5055386;28;20410;-50
2022/07/19 12:27:09;;;;;;;2.93;2.17;;;39.70;15.20;;;;;;5055092;28;20779;-49
2022/07/19 12:29:40;;;;;;;4.17;3.23;;;39.70;15.50;;;;;;5055130;28;20508;-51
2022/07/19 12:32:09;;;;;;;4.97;2.50;;;39.80;13.60;;;;;;5055549;28;20806;-48
2022/07/19 12:35:05;;;;;;;4.13;3.00;;;39.80;14.20;;;;;;5055104;28;20412;-49
2022/07/19 12:37:40;;;;;;;3.90;2.20;;;39.80;13.90;;;;;;5038207;28;20424;-49
2022/07/19 12:40:12;;;;;;;4.93;3.37;;;39.90;14.50;;;;;;5054933;28;20784;-50
2022/07/19 12:42:39;;;;;;;2.73;2.27;;;39.90;14.20;;;;;;5054880;28;20422;-50
2022/07/19 12:45:07;;;;;;;3.80;2.23;;;40.00;15.20;;;;;;5054973;28;20481;-50
2022/07/19 12:47:32;;;;;;;3.67;2.90;;;40.10;15.00;;;;;;5054722;28;20495;-49
2022/07/19 12:49:58;;;;;;;3.47;3.07;;;40.10;15.10;;;;;;5054790;28;20514;-51
2022/07/19 12:52:24;;;;;;;4.30;2.10;;;40.10;14.60;;;;;;5054913;28;20177;-50